Searchmont, Canada
Current Conditions -  °F | °C
As of 8:55 AM on Tuesday 21 Oct 2014 (Local Time) from KANJ Reporting Station
Clear Clear  
Wind Chill: 30°   Ceiling: Unl
Heat Index: 36°   Visibility: 10mi
Dew Point: 28°   Wind: 7mph
Humidity: 73%   Direction: 20°NNE
Pressure: 30.17"   Gusts: NA
Location:  46.78°N, 84.05°W
Report Text: KANJ 211255Z AUTO 02006KT 10SM CLR 02/M02 A3017 RMK AO2 SLP219 T00221022
Loading
Personal Weather Stations






























Interactive Weather Map
Tropical Storm Tracking
New forecast layout! Learn more

10-Day Weather Forecast

Advertisements
Track Severe Weather on mobile